North Hollywood, CA

3:51 PM PST on January 27, 2015 (GMT -0800)
Burbank-Glendale-Pasadena | Change Station
CLOSE
Current Station
Airport
Location: Burbank,
Elevation: 774 ft
Nearby Weather Stations

Elev 774 ft 34.20 °N, 118.36 °W | Updated 58 minutes ago

Partly Cloudy
Partly Cloudy
70 °F
Feels Like 70 °F
N
4
Wind Variable Wind from Variable

Today
High -- | Low -- °F
--% Chance of Precip.
Yesterday
High -- | Low -- °F
Precip. -- in
6:54 AM 5:18 PM
First Quarter, 58% visible
Pressure 30.12 in
Visibility 10.0 miles
Clouds Few 5500 ft
Scattered Clouds 7500 ft
Dew Point 45 °F
Humidity 41%
Rainfall 0.01 in
Snow Depth Not available.
UV 2 out of 12
Pollen 6.10 out of 12
Air Quality Not available.
Flu Activity Not available.
METAR KBUR 272253Z VRB03KT 10SM FEW055 SCT075 21/07 A3014 RMK AO2 SLP197 T02110072

More Conditions Fewer Conditions

Pressure 30.12 in
Visibility 10.0 miles
Clouds Few 5500 ft
Scattered Clouds 7500 ft
Dew Point 45 °F
Humidity 41%
Rainfall 0.01 in
Snow Depth Not available.
UV 2 out of 12
Pollen 6.10 out of 12
Air Quality Not available.
Flu Activity Not available.
METAR KBUR 272253Z VRB03KT 10SM FEW055 SCT075 21/07 A3014 RMK AO2 SLP197 T02110072

More Conditions Fewer Conditions

10-Day Weather Forecast

Almanac

Astronomy

Jan. 27, 2015 Rise Set
Actual Time
Civil Twilight
Nautical Twilight
Astronomical Twilight
Moon
Length of Visible Light
Length of Day
Tomorrow will be .
, % of the Moon is Illuminated

Today's Extremes

State Highs State Lows

Community

WunderPhotos

Upload Photos

1,790,986 photos uploaded!

WunderBlogs® & News

Nearby

Air Quality

  Air Quality AQ Index Pollutant
Not available.

Snow Depth

Station Depth Elevation

Earthquake Activity

City Distance Mag. Time & Date
Minimum magnitude displayed is 2.5.

Coastal Water Temperatures

Place Temperature

Nearby Weather Stations